sensor_id;sensor_type;location;lat;lon;timestamp;pressure;altitude;pressure_sealevel;temperature;humidity
18697;BME280;22617;43.690;27.956;2023-09-18T00:04:47;99434.56;;;15.15;74.28
18697;BME280;22617;43.690;27.956;2023-09-18T00:09:52;99430.16;;;15.16;74.14
18697;BME280;22617;43.690;27.956;2023-09-18T00:14:56;99426.72;;;15.11;73.52
18697;BME280;22617;43.690;27.956;2023-09-18T00:19:59;99425.09;;;15.05;72.55
18697;BME280;22617;43.690;27.956;2023-09-18T00:25:06;99431.22;;;15.04;73.06
18697;BME280;22617;43.690;27.956;2023-09-18T00:30:10;99421.75;;;14.94;73.07
18697;BME280;22617;43.690;27.956;2023-09-18T00:35:14;99420.22;;;14.81;73.04
18697;BME280;22617;43.690;27.956;2023-09-18T00:40:20;99417.53;;;14.82;73.46
18697;BME280;22617;43.690;27.956;2023-09-18T00:45:23;99426.28;;;14.84;73.13
18697;BME280;22617;43.690;27.956;2023-09-18T00:50:27;99417.66;;;14.75;73.56
18697;BME280;22617;43.690;27.956;2023-09-18T00:55:32;99414.97;;;14.79;74.39
18697;BME280;22617;43.690;27.956;2023-09-18T01:00:36;99406.41;;;14.67;72.89
18697;BME280;22617;43.690;27.956;2023-09-18T01:05:41;99410.31;;;14.37;74.14
18697;BME280;22617;43.690;27.956;2023-09-18T01:10:50;99408.59;;;14.30;74.89
18697;BME280;22617;43.690;27.956;2023-09-18T01:16:02;99412.28;;;14.17;73.98
18697;BME280;22617;43.690;27.956;2023-09-18T01:21:10;99411.22;;;14.30;74.96
18697;BME280;22617;43.690;27.956;2023-09-18T01:26:15;99408.59;;;14.33;74.12
18697;BME280;22617;43.690;27.956;2023-09-18T01:31:19;99406.78;;;14.39;73.84
18697;BME280;22617;43.690;27.956;2023-09-18T01:36:23;99410.34;;;14.29;73.69
18697;BME280;22617;43.690;27.956;2023-09-18T01:41:29;99408.06;;;14.01;74.45
18697;BME280;22617;43.690;27.956;2023-09-18T01:46:33;99405.44;;;14.05;75.12
18697;BME280;22617;43.690;27.956;2023-09-18T01:51:38;99406.22;;;14.12;74.51
18697;BME280;22617;43.690;27.956;2023-09-18T01:56:43;99412.28;;;14.17;74.72
18697;BME280;22617;43.690;27.956;2023-09-18T02:01:47;99406.22;;;14.12;74.85
18697;BME280;22617;43.690;27.956;2023-09-18T02:06:51;99408.84;;;14.10;73.87
18697;BME280;22617;43.690;27.956;2023-09-18T02:11:56;99411.97;;;13.66;75.00
18697;BME280;22617;43.690;27.956;2023-09-18T02:17:01;99413.53;;;13.84;76.12
18697;BME280;22617;43.690;27.956;2023-09-18T02:22:05;99408.91;;;14.06;74.97
18697;BME280;22617;43.690;27.956;2023-09-18T02:27:10;99415.81;;;14.11;75.28
18697;BME280;22617;43.690;27.956;2023-09-18T02:32:14;99410.63;;;14.07;74.92
18697;BME280;22617;43.690;27.956;2023-09-18T02:37:18;99417.50;;;14.18;74.58
18697;BME280;22617;43.690;27.956;2023-09-18T02:42:22;99420.19;;;14.14;74.41
18697;BME280;22617;43.690;27.956;2023-09-18T02:47:26;99418.69;;;13.90;76.04
18697;BME280;22617;43.690;27.956;2023-09-18T02:52:31;99417.69;;;14.02;75.66
18697;BME280;22617;43.690;27.956;2023-09-18T02:57:36;99423.78;;;14.05;75.22
18697;BME280;22617;43.690;27.956;2023-09-18T03:02:39;99419.41;;;14.04;74.74
18697;BME280;22617;43.690;27.956;2023-09-18T03:07:44;99412.28;;;14.15;74.88
18697;BME280;22617;43.690;27.956;2023-09-18T03:12:49;99413.97;;;14.21;74.33
18697;BME280;22617;43.690;27.956;2023-09-18T03:17:53;99413.84;;;14.31;74.91
18697;BME280;22617;43.690;27.956;2023-09-18T03:22:58;99416.38;;;14.42;75.31
18697;BME280;22617;43.690;27.956;2023-09-18T03:28:04;99419.81;;;14.44;78.13
18697;BME280;22617;43.690;27.956;2023-09-18T03:33:08;99422.28;;;14.58;77.78
18697;BME280;22617;43.690;27.956;2023-09-18T03:38:12;99420.41;;;14.66;78.52
18697;BME280;22617;43.690;27.956;2023-09-18T03:43:18;99417.78;;;14.67;80.66
18697;BME280;22617;43.690;27.956;2023-09-18T03:48:22;99409.72;;;14.81;80.52
18697;BME280;22617;43.690;27.956;2023-09-18T03:53:26;99408.69;;;14.91;81.07
18697;BME280;22617;43.690;27.956;2023-09-18T03:58:31;99422.66;;;14.92;80.76
18697;BME280;22617;43.690;27.956;2023-09-18T04:03:37;99426.13;;;14.94;79.75
18697;BME280;22617;43.690;27.956;2023-09-18T04:08:41;99426.41;;;14.77;79.98
18697;BME280;22617;43.690;27.956;2023-09-18T04:13:46;99431.59;;;14.81;81.67
18697;BME280;22617;43.690;27.956;2023-09-18T04:18:50;99433.88;;;15.03;82.61
18697;BME280;22617;43.690;27.956;2023-09-18T04:23:54;99444.09;;;15.21;81.92
18697;BME280;22617;43.690;27.956;2023-09-18T04:29:01;99436.03;;;15.32;81.97
18697;BME280;22617;43.690;27.956;2023-09-18T04:34:06;99444.72;;;15.38;81.44
18697;BME280;22617;43.690;27.956;2023-09-18T04:39:10;99434.09;;;15.44;81.48
18697;BME280;22617;43.690;27.956;2023-09-18T04:44:15;99438.41;;;15.48;81.66
18697;BME280;22617;43.690;27.956;2023-09-18T04:49:20;99440.06;;;15.55;81.16
18697;BME280;22617;43.690;27.956;2023-09-18T04:54:24;99449.47;;;15.68;82.05
18697;BME280;22617;43.690;27.956;2023-09-18T04:59:29;99443.75;;;15.93;81.65
18697;BME280;22617;43.690;27.956;2023-09-18T05:04:34;99453.13;;;16.09;81.71
18697;BME280;22617;43.690;27.956;2023-09-18T05:09:37;99451.84;;;16.30;81.32
18697;BME280;22617;43.690;27.956;2023-09-18T05:14:44;99454.00;;;16.52;80.41
18697;BME280;22617;43.690;27.956;2023-09-18T05:19:48;99455.59;;;16.61;79.78
18697;BME280;22617;43.690;27.956;2023-09-18T05:24:52;99457.72;;;16.84;78.90
18697;BME280;22617;43.690;27.956;2023-09-18T05:29:57;99446.47;;;17.16;78.24
18697;BME280;22617;43.690;27.956;2023-09-18T05:35:00;99446.72;;;17.42;76.36
18697;BME280;22617;43.690;27.956;2023-09-18T05:40:09;99446.59;;;17.82;76.58
18697;BME280;22617;43.690;27.956;2023-09-18T05:45:14;99452.25;;;18.01;75.27
18697;BME280;22617;43.690;27.956;2023-09-18T05:50:18;99436.06;;;18.14;74.01
18697;BME280;22617;43.690;27.956;2023-09-18T05:55:22;99436.94;;;18.46;74.00
18697;BME280;22617;43.690;27.956;2023-09-18T06:00:27;99452.75;;;18.77;73.53
18697;BME280;22617;43.690;27.956;2023-09-18T06:05:33;99454.84;;;18.95;73.00
18697;BME280;22617;43.690;27.956;2023-09-18T06:10:37;99459.97;;;18.99;72.63
18697;BME280;22617;43.690;27.956;2023-09-18T06:15:42;99455.94;;;19.17;72.20
18697;BME280;22617;43.690;27.956;2023-09-18T06:20:46;99458.16;;;19.57;72.35
18697;BME280;22617;43.690;27.956;2023-09-18T06:25:50;99455.84;;;19.74;70.59
18697;BME280;22617;43.690;27.956;2023-09-18T06:30:59;99460.28;;;19.98;70.66
18697;BME280;22617;43.690;27.956;2023-09-18T06:36:04;99462.09;;;20.48;70.42
18697;BME280;22617;43.690;27.956;2023-09-18T06:41:08;99461.34;;;20.91;68.48
18697;BME280;22617;43.690;27.956;2023-09-18T06:46:12;99469.28;;;21.14;66.92
18697;BME280;22617;43.690;27.956;2023-09-18T06:51:16;99466.75;;;21.54;65.34
18697;BME280;22617;43.690;27.956;2023-09-18T06:56:31;99471.59;;;21.87;64.00
18697;BME280;22617;43.690;27.956;2023-09-18T07:01:36;99459.09;;;21.89;64.08
18697;BME280;22617;43.690;27.956;2023-09-18T07:06:41;99454.09;;;22.43;63.88
18697;BME280;22617;43.690;27.956;2023-09-18T07:11:44;99462.41;;;22.93;61.50
18697;BME280;22617;43.690;27.956;2023-09-18T07:16:50;99468.50;;;23.33;58.52
18697;BME280;22617;43.690;27.956;2023-09-18T07:21:53;99461.09;;;23.39;56.39
18697;BME280;22617;43.690;27.956;2023-09-18T07:26:57;99462.25;;;23.53;56.15
18697;BME280;22617;43.690;27.956;2023-09-18T07:32:03;99462.31;;;23.51;55.53
18697;BME280;22617;43.690;27.956;2023-09-18T07:37:07;99458.19;;;23.63;54.91
18697;BME280;22617;43.690;27.956;2023-09-18T07:42:11;99458.88;;;22.93;56.49
18697;BME280;22617;43.690;27.956;2023-09-18T07:47:16;99462.13;;;23.18;55.79
18697;BME280;22617;43.690;27.956;2023-09-18T07:52:19;99450.59;;;23.72;54.84
18697;BME280;22617;43.690;27.956;2023-09-18T07:57:23;99458.91;;;24.35;51.78
18697;BME280;22617;43.690;27.956;2023-09-18T08:02:28;99459.66;;;24.70;49.40
18697;BME280;22617;43.690;27.956;2023-09-18T08:07:33;99459.91;;;24.32;49.93
18697;BME280;22617;43.690;27.956;2023-09-18T08:12:38;99461.19;;;24.25;49.75
18697;BME280;22617;43.690;27.956;2023-09-18T08:17:43;99463.69;;;24.94;48.05
18697;BME280;22617;43.690;27.956;2023-09-18T08:22:49;99461.72;;;23.80;48.52
18697;BME280;22617;43.690;27.956;2023-09-18T08:27:52;99460.44;;;23.53;48.78
18697;BME280;22617;43.690;27.956;2023-09-18T08:32:58;99474.03;;;23.83;49.91
18697;BME280;22617;43.690;27.956;2023-09-18T08:38:01;99457.09;;;23.84;50.68
18697;BME280;22617;43.690;27.956;2023-09-18T08:43:06;99452.91;;;24.47;49.15
18697;BME280;22617;43.690;27.956;2023-09-18T08:48:11;99447.16;;;24.05;49.53
18697;BME280;22617;43.690;27.956;2023-09-18T08:53:15;99444.19;;;24.11;49.91
18697;BME280;22617;43.690;27.956;2023-09-18T08:58:19;99433.66;;;23.56;49.71
18697;BME280;22617;43.690;27.956;2023-09-18T09:03:26;99438.16;;;23.73;50.04
18697;BME280;22617;43.690;27.956;2023-09-18T09:08:30;99436.94;;;24.13;49.07
18697;BME280;22617;43.690;27.956;2023-09-18T09:13:34;99433.75;;;24.06;48.90
18697;BME280;22617;43.690;27.956;2023-09-18T09:18:50;99437.22;;;25.23;48.32
18697;BME280;22617;43.690;27.956;2023-09-18T09:23:54;99440.88;;;25.97;46.17
18697;BME280;22617;43.690;27.956;2023-09-18T09:29:14;99427.03;;;26.34;46.80
18697;BME280;22617;43.690;27.956;2023-09-18T09:34:26;99443.31;;;25.40;47.35
18697;BME280;22617;43.690;27.956;2023-09-18T09:39:30;99445.22;;;24.58;47.89
18697;BME280;22617;43.690;27.956;2023-09-18T09:44:34;99443.16;;;24.96;47.35
18697;BME280;22617;43.690;27.956;2023-09-18T09:49:47;99449.75;;;24.56;47.79
18697;BME280;22617;43.690;27.956;2023-09-18T09:54:51;99445.84;;;24.30;48.59
18697;BME280;22617;43.690;27.956;2023-09-18T10:00:03;99438.81;;;25.56;46.75
18697;BME280;22617;43.690;27.956;2023-09-18T10:05:27;99439.63;;;24.96;46.73
18697;BME280;22617;43.690;27.956;2023-09-18T10:10:35;99433.47;;;24.78;46.28
18697;BME280;22617;43.690;27.956;2023-09-18T10:15:39;99431.53;;;25.13;45.92
18697;BME280;22617;43.690;27.956;2023-09-18T10:20:48;99426.13;;;24.50;46.60
18697;BME280;22617;43.690;27.956;2023-09-18T10:25:55;99427.66;;;24.70;46.86
18697;BME280;22617;43.690;27.956;2023-09-18T10:31:05;99414.31;;;25.18;45.60
18697;BME280;22617;43.690;27.956;2023-09-18T10:36:12;99409.09;;;25.92;45.12
18697;BME280;22617;43.690;27.956;2023-09-18T10:41:17;99402.59;;;26.26;45.16
18697;BME280;22617;43.690;27.956;2023-09-18T10:46:24;99392.13;;;25.93;44.95
18697;BME280;22617;43.690;27.956;2023-09-18T10:51:31;99386.63;;;26.25;44.87
18697;BME280;22617;43.690;27.956;2023-09-18T10:56:35;99392.22;;;26.77;44.60
18697;BME280;22617;43.690;27.956;2023-09-18T11:01:39;99386.41;;;25.55;45.40
18697;BME280;22617;43.690;27.956;2023-09-18T11:07:03;99386.97;;;26.04;45.78
18697;BME280;22617;43.690;27.956;2023-09-18T11:12:12;99392.09;;;26.66;45.84
18697;BME280;22617;43.690;27.956;2023-09-18T11:17:34;99389.84;;;26.86;46.37
18697;BME280;22617;43.690;27.956;2023-09-18T11:22:46;99383.88;;;27.63;43.22
18697;BME280;22617;43.690;27.956;2023-09-18T11:27:54;99372.13;;;27.79;43.44
18697;BME280;22617;43.690;27.956;2023-09-18T11:32:58;99377.59;;;27.90;44.08
18697;BME280;22617;43.690;27.956;2023-09-18T11:38:08;99380.59;;;27.98;44.31
18697;BME280;22617;43.690;27.956;2023-09-18T11:43:19;99374.13;;;26.25;45.46
18697;BME280;22617;43.690;27.956;2023-09-18T11:48:27;99372.53;;;25.33;46.83
18697;BME280;22617;43.690;27.956;2023-09-18T11:53:35;99380.66;;;24.69;46.74
18697;BME280;22617;43.690;27.956;2023-09-18T11:58:46;99381.84;;;25.42;46.19
18697;BME280;22617;43.690;27.956;2023-09-18T12:03:53;99375.91;;;25.67;47.14
18697;BME280;22617;43.690;27.956;2023-09-18T12:08:59;99372.91;;;25.11;47.96
18697;BME280;22617;43.690;27.956;2023-09-18T12:14:03;99367.03;;;26.53;45.62
18697;BME280;22617;43.690;27.956;2023-09-18T12:19:07;99357.97;;;27.10;43.02
18697;BME280;22617;43.690;27.956;2023-09-18T12:24:14;99355.47;;;27.34;43.38
18697;BME280;22617;43.690;27.956;2023-09-18T12:29:19;99348.75;;;27.28;43.18
18697;BME280;22617;43.690;27.956;2023-09-18T12:34:23;99353.53;;;26.97;44.38
18697;BME280;22617;43.690;27.956;2023-09-18T12:39:33;99358.13;;;25.51;45.92
18697;BME280;22617;43.690;27.956;2023-09-18T12:44:36;99354.66;;;26.37;45.37
18697;BME280;22617;43.690;27.956;2023-09-18T12:49:40;99347.19;;;26.57;45.65
18697;BME280;22617;43.690;27.956;2023-09-18T12:54:46;99347.13;;;26.85;46.24
18697;BME280;22617;43.690;27.956;2023-09-18T12:59:56;99350.16;;;26.24;46.21
18697;BME280;22617;43.690;27.956;2023-09-18T13:05:00;99347.38;;;25.37;47.55
18697;BME280;22617;43.690;27.956;2023-09-18T13:10:07;99343.75;;;24.77;46.86
18697;BME280;22617;43.690;27.956;2023-09-18T13:15:12;99339.13;;;24.65;47.83
18697;BME280;22617;43.690;27.956;2023-09-18T13:20:20;99332.47;;;25.49;49.26
18697;BME280;22617;43.690;27.956;2023-09-18T13:25:29;99329.19;;;25.44;49.23
18697;BME280;22617;43.690;27.956;2023-09-18T13:30:36;99329.63;;;25.06;50.02
18697;BME280;22617;43.690;27.956;2023-09-18T13:35:42;99326.47;;;24.84;50.57
18697;BME280;22617;43.690;27.956;2023-09-18T13:40:48;99324.53;;;24.23;52.97
18697;BME280;22617;43.690;27.956;2023-09-18T13:45:52;99319.81;;;24.28;54.06
18697;BME280;22617;43.690;27.956;2023-09-18T13:50:56;99321.19;;;24.51;50.84
18697;BME280;22617;43.690;27.956;2023-09-18T13:56:01;99325.13;;;24.28;52.05
18697;BME280;22617;43.690;27.956;2023-09-18T14:01:05;99321.81;;;24.56;52.77
18697;BME280;22617;43.690;27.956;2023-09-18T14:06:09;99318.81;;;24.62;52.91
18697;BME280;22617;43.690;27.956;2023-09-18T14:11:15;99315.38;;;24.60;51.96
18697;BME280;22617;43.690;27.956;2023-09-18T14:16:20;99311.22;;;24.70;51.51
18697;BME280;22617;43.690;27.956;2023-09-18T14:21:42;99304.44;;;24.33;54.02
18697;BME280;22617;43.690;27.956;2023-09-18T14:26:48;99308.13;;;24.31;53.92
18697;BME280;22617;43.690;27.956;2023-09-18T14:31:52;99307.41;;;24.27;54.08
18697;BME280;22617;43.690;27.956;2023-09-18T14:36:56;99308.16;;;24.14;54.89
18697;BME280;22617;43.690;27.956;2023-09-18T14:42:01;99312.38;;;23.85;55.19
18697;BME280;22617;43.690;27.956;2023-09-18T14:47:05;99296.50;;;23.32;56.49
18697;BME280;22617;43.690;27.956;2023-09-18T14:52:09;99301.59;;;23.02;56.62
18697;BME280;22617;43.690;27.956;2023-09-18T14:57:14;99300.44;;;22.89;56.84
18697;BME280;22617;43.690;27.956;2023-09-18T15:02:17;99312.22;;;23.02;56.36
18697;BME280;22617;43.690;27.956;2023-09-18T15:07:21;99310.09;;;22.91;56.36
18697;BME280;22617;43.690;27.956;2023-09-18T15:12:26;99309.59;;;22.83;55.79
18697;BME280;22617;43.690;27.956;2023-09-18T15:17:31;99314.78;;;22.86;56.03
18697;BME280;22617;43.690;27.956;2023-09-18T15:22:35;99315.06;;;22.61;56.63
18697;BME280;22617;43.690;27.956;2023-09-18T15:27:40;99310.94;;;22.54;56.95
18697;BME280;22617;43.690;27.956;2023-09-18T15:32:48;99314.25;;;22.41;56.93
18697;BME280;22617;43.690;27.956;2023-09-18T15:37:53;99308.69;;;22.28;58.05
18697;BME280;22617;43.690;27.956;2023-09-18T15:42:58;99301.63;;;22.08;58.00
18697;BME280;22617;43.690;27.956;2023-09-18T15:48:02;99309.59;;;22.08;57.90
18697;BME280;22617;43.690;27.956;2023-09-18T15:53:06;99303.31;;;21.91;57.90
18697;BME280;22617;43.690;27.956;2023-09-18T15:58:11;99304.06;;;21.54;58.37
18697;BME280;22617;43.690;27.956;2023-09-18T16:03:16;99298.38;;;21.43;58.75
18697;BME280;22617;43.690;27.956;2023-09-18T16:08:19;99294.25;;;21.36;59.34
18697;BME280;22617;43.690;27.956;2023-09-18T16:13:24;99295.09;;;21.16;59.71
18697;BME280;22617;43.690;27.956;2023-09-18T16:18:28;99289.63;;;20.99;60.09
18697;BME280;22617;43.690;27.956;2023-09-18T16:23:32;99297.81;;;20.93;60.33
18697;BME280;22617;43.690;27.956;2023-09-18T16:28:37;99299.47;;;20.73;60.70
18697;BME280;22617;43.690;27.956;2023-09-18T16:33:40;99293.59;;;20.67;61.12
18697;BME280;22617;43.690;27.956;2023-09-18T16:38:44;99303.19;;;20.48;61.26
18697;BME280;22617;43.690;27.956;2023-09-18T16:43:49;99311.41;;;20.40;61.44
18697;BME280;22617;43.690;27.956;2023-09-18T16:48:53;99306.47;;;20.31;62.00
18697;BME280;22617;43.690;27.956;2023-09-18T16:53:58;99314.78;;;20.20;61.89
18697;BME280;22617;43.690;27.956;2023-09-18T16:59:04;99317.03;;;20.08;62.08
18697;BME280;22617;43.690;27.956;2023-09-18T17:04:07;99320.25;;;19.92;62.36
18697;BME280;22617;43.690;27.956;2023-09-18T17:09:12;99327.50;;;19.87;62.97
18697;BME280;22617;43.690;27.956;2023-09-18T17:14:17;99329.97;;;19.92;63.03
18697;BME280;22617;43.690;27.956;2023-09-18T17:19:21;99327.28;;;19.69;63.33
18697;BME280;22617;43.690;27.956;2023-09-18T17:24:25;99334.09;;;19.51;63.58
18697;BME280;22617;43.690;27.956;2023-09-18T17:29:30;99342.91;;;19.51;63.88
18697;BME280;22617;43.690;27.956;2023-09-18T17:34:34;99344.16;;;19.40;64.00
18697;BME280;22617;43.690;27.956;2023-09-18T17:39:37;99346.38;;;19.26;64.29
18697;BME280;22617;43.690;27.956;2023-09-18T17:44:42;99348.03;;;18.76;65.51
18697;BME280;22617;43.690;27.956;2023-09-18T17:49:45;99353.66;;;18.65;65.83
18697;BME280;22617;43.690;27.956;2023-09-18T17:54:50;99347.84;;;18.54;66.03
18697;BME280;22617;43.690;27.956;2023-09-18T17:59:56;99352.78;;;18.35;66.78
18697;BME280;22617;43.690;27.956;2023-09-18T18:05:03;99359.63;;;18.11;66.32
18697;BME280;22617;43.690;27.956;2023-09-18T18:10:08;99361.34;;;17.81;67.10
18697;BME280;22617;43.690;27.956;2023-09-18T18:15:13;99368.53;;;17.76;66.82
18697;BME280;22617;43.690;27.956;2023-09-18T18:20:19;99364.09;;;17.78;66.29
18697;BME280;22617;43.690;27.956;2023-09-18T18:25:25;99358.88;;;17.41;66.01
18697;BME280;22617;43.690;27.956;2023-09-18T18:30:30;99367.66;;;17.42;66.33
18697;BME280;22617;43.690;27.956;2023-09-18T18:35:34;99370.41;;;17.37;67.36
18697;BME280;22617;43.690;27.956;2023-09-18T18:40:38;99366.13;;;17.33;66.23
18697;BME280;22617;43.690;27.956;2023-09-18T18:45:50;99364.00;;;17.12;67.34
18697;BME280;22617;43.690;27.956;2023-09-18T18:50:59;99360.56;;;17.10;66.90
18697;BME280;22617;43.690;27.956;2023-09-18T18:56:03;99359.50;;;17.17;66.84
18697;BME280;22617;43.690;27.956;2023-09-18T19:01:08;99355.03;;;17.21;67.54
18697;BME280;22617;43.690;27.956;2023-09-18T19:06:12;99356.16;;;17.11;68.19
18697;BME280;22617;43.690;27.956;2023-09-18T19:11:16;99350.13;;;17.07;68.19
18697;BME280;22617;43.690;27.956;2023-09-18T19:16:21;99350.09;;;16.70;69.28
18697;BME280;22617;43.690;27.956;2023-09-18T19:21:25;99350.97;;;16.71;68.31
18697;BME280;22617;43.690;27.956;2023-09-18T19:26:30;99360.59;;;16.72;67.09
18697;BME280;22617;43.690;27.956;2023-09-18T19:31:35;99356.97;;;16.77;67.62
18697;BME280;22617;43.690;27.956;2023-09-18T19:36:39;99356.59;;;16.54;67.58
18697;BME280;22617;43.690;27.956;2023-09-18T19:41:53;99360.38;;;16.41;68.10
18697;BME280;22617;43.690;27.956;2023-09-18T19:47:00;99358.63;;;16.41;67.39
18697;BME280;22617;43.690;27.956;2023-09-18T19:52:06;99348.19;;;16.37;68.36
18697;BME280;22617;43.690;27.956;2023-09-18T19:57:11;99348.41;;;16.26;68.56
18697;BME280;22617;43.690;27.956;2023-09-18T20:02:17;99355.44;;;15.84;69.08
18697;BME280;22617;43.690;27.956;2023-09-18T20:07:20;99349.28;;;15.85;69.21
18697;BME280;22617;43.690;27.956;2023-09-18T20:12:24;99342.19;;;15.89;68.36
18697;BME280;22617;43.690;27.956;2023-09-18T20:17:30;99334.41;;;15.84;68.73
18697;BME280;22617;43.690;27.956;2023-09-18T20:22:35;99325.75;;;15.79;67.52
18697;BME280;22617;43.690;27.956;2023-09-18T20:27:39;99330.50;;;15.60;68.56
18697;BME280;22617;43.690;27.956;2023-09-18T20:32:46;99331.88;;;15.31;69.88
18697;BME280;22617;43.690;27.956;2023-09-18T20:37:50;99330.19;;;15.28;69.56
18697;BME280;22617;43.690;27.956;2023-09-18T20:42:53;99340.50;;;15.39;68.86
18697;BME280;22617;43.690;27.956;2023-09-18T20:47:58;99332.47;;;15.46;68.56
18697;BME280;22617;43.690;27.956;2023-09-18T20:53:02;99331.59;;;15.46;68.38
18697;BME280;22617;43.690;27.956;2023-09-18T20:58:07;99336.13;;;15.38;69.05
18697;BME280;22617;43.690;27.956;2023-09-18T21:03:13;99334.41;;;15.35;67.53
18697;BME280;22617;43.690;27.956;2023-09-18T21:08:19;99346.66;;;15.36;68.46
18697;BME280;22617;43.690;27.956;2023-09-18T21:13:23;99338.31;;;15.13;68.74
18697;BME280;22617;43.690;27.956;2023-09-18T21:18:28;99339.72;;;14.81;69.65
18697;BME280;22617;43.690;27.956;2023-09-18T21:23:32;99333.38;;;14.95;69.72
18697;BME280;22617;43.690;27.956;2023-09-18T21:28:36;99327.03;;;15.08;69.15
18697;BME280;22617;43.690;27.956;2023-09-18T21:33:41;99339.28;;;15.07;69.33
18697;BME280;22617;43.690;27.956;2023-09-18T21:38:48;99339.38;;;15.03;70.03
18697;BME280;22617;43.690;27.956;2023-09-18T21:43:52;99343.63;;;14.55;70.46
18697;BME280;22617;43.690;27.956;2023-09-18T21:48:57;99346.25;;;14.53;71.35
18697;BME280;22617;43.690;27.956;2023-09-18T21:54:00;99346.03;;;14.68;69.69
18697;BME280;22617;43.690;27.956;2023-09-18T21:59:04;99332.56;;;14.30;72.91
18697;BME280;22617;43.690;27.956;2023-09-18T22:04:09;99341.63;;;14.06;77.45
18697;BME280;22617;43.690;27.956;2023-09-18T22:09:25;99340.22;;;13.79;76.31
18697;BME280;22617;43.690;27.956;2023-09-18T22:14:29;99331.25;;;13.98;74.92
18697;BME280;22617;43.690;27.956;2023-09-18T22:19:34;99333.94;;;13.92;75.63
18697;BME280;22617;43.690;27.956;2023-09-18T22:24:38;99326.13;;;13.86;75.85
18697;BME280;22617;43.690;27.956;2023-09-18T22:29:41;99323.47;;;13.91;74.71
18697;BME280;22617;43.690;27.956;2023-09-18T22:34:47;99312.13;;;13.90;73.42
18697;BME280;22617;43.690;27.956;2023-09-18T22:56:29;99298.16;;;13.88;73.06
18697;BME280;22617;43.690;27.956;2023-09-18T23:01:33;99295.78;;;13.70;73.65
18697;BME280;22617;43.690;27.956;2023-09-18T23:06:37;99281.06;;;13.60;72.99
18697;BME280;22617;43.690;27.956;2023-09-18T23:11:42;99275.94;;;13.48;74.46
18697;BME280;22617;43.690;27.956;2023-09-18T23:16:48;99281.00;;;13.66;74.85
18697;BME280;22617;43.690;27.956;2023-09-18T23:21:51;99269.72;;;13.61;73.15
18697;BME280;22617;43.690;27.956;2023-09-18T23:26:58;99265.41;;;13.54;72.63
18697;BME280;22617;43.690;27.956;2023-09-18T23:32:02;99268.94;;;13.50;73.22
18697;BME280;22617;43.690;27.956;2023-09-18T23:37:07;99261.91;;;13.55;72.24
18697;BME280;22617;43.690;27.956;2023-09-18T23:42:13;99267.03;;;13.64;71.50
18697;BME280;22617;43.690;27.956;2023-09-18T23:47:17;99262.66;;;13.66;72.13
18697;BME280;22617;43.690;27.956;2023-09-18T23:52:22;99261.78;;;13.64;72.42
18697;BME280;22617;43.690;27.956;2023-09-18T23:57:28;99254.81;;;13.66;72.15
